Time;durP1;ratioP1;P1;durP2;ratioP2;P2;SDS_P1;SDS_P2;PMS_P1;PMS_P2;Temp;Humidity;BMP_temperature;BMP_pressure;BME280_temperature;BME280_humidity;BME280_pressure;Samples;Min_cycle;Max_cycle;Signal;HPM_P1;HPM_P2
2024/01/09 06:41:39;;;;;;;;;;;;;;;2.88;59.96;97164.59;4264940;27;10522;-67
2024/01/09 06:43:42;;;;;;;;;;;;;;;3.18;59.60;97155.00;4262150;27;5877;-67
2024/01/09 06:45:45;;;;;;;;;;;;;;;3.42;59.24;97155.38;4258429;27;6929;-66
2024/01/09 06:47:48;;;;;;;;;;;;;;;3.60;58.77;97152.03;4266200;27;5901;-66
2024/01/09 06:49:51;;;;;;;;;;;;;;;3.75;58.49;97153.28;4263154;27;6611;-64
2024/01/09 06:51:56;;;;;;;;;;;;;;;3.91;58.24;97163.13;4260267;27;5628;-65
2024/01/09 06:53:58;;;;;;;;;;;;;;;4.02;57.93;97155.91;4262453;27;5642;-65
2024/01/09 06:56:01;;;;;;;;;;;;;;;4.12;57.70;97155.88;4248759;27;5768;-65
2024/01/09 06:58:05;;;;;;;;;;;;;;;4.21;57.53;97156.81;4248592;27;5761;-65
2024/01/09 07:00:08;;;;;;;;;;;;;;;4.25;57.22;97164.22;4244993;27;6354;-65
2024/01/09 07:02:12;;;;;;;;;;;;;;;4.26;56.98;97149.34;4242002;27;5898;-66
2024/01/09 07:04:16;;;;;;;;;;;;;;;4.35;56.96;97167.63;4248978;27;5732;-65
2024/01/09 07:06:19;;;;;;;;;;;;;;;4.39;56.64;97160.31;4245605;27;5752;-66
2024/01/09 07:08:23;;;;;;;;;;;;;;;4.44;56.61;97163.31;4247820;27;5722;-65
2024/01/09 07:10:26;;;;;;;;;;;;;;;4.48;56.42;97158.59;4254526;27;5656;-66
2024/01/09 07:12:29;;;;;;;;;;;;;;;4.50;56.48;97172.38;4257314;27;5657;-65
2024/01/09 07:14:33;;;;;;;;;;;;;;;4.53;56.19;97167.69;4247099;27;5732;-65
2024/01/09 07:16:36;;;;;;;;;;;;;;;4.54;56.05;97171.94;4233203;27;5745;-66
2024/01/09 07:18:41;;;;;;;;;;;;;;;4.54;55.91;97168.50;4247685;27;5898;-65
2024/01/09 07:20:44;;;;;;;;;;;;;;;4.51;55.68;97174.84;4247308;27;5745;-66
2024/01/09 07:22:48;;;;;;;;;;;;;;;4.48;55.47;97167.28;4249818;27;5673;-64
2024/01/09 07:24:58;;;;;;;;;;;;;;;4.47;55.24;97168.25;4264981;27;5643;-65
2024/01/09 07:27:01;;;;;;;;;;;;;;;4.48;55.32;97164.66;4265123;27;5713;-67
2024/01/09 07:29:04;;;;;;;;;;;;;;;4.50;55.14;97175.81;4265229;27;5616;-66
2024/01/09 07:31:09;;;;;;;;;;;;;;;4.50;55.09;97175.81;4235656;27;5853;-66
2024/01/09 07:33:12;;;;;;;;;;;;;;;4.48;54.76;97179.56;4237454;27;5658;-66
2024/01/09 07:35:14;;;;;;;;;;;;;;;4.48;54.85;97175.13;4250650;27;5677;-65
2024/01/09 16:50:35;;;;;;;;;;;;;;;3.52;69.09;97364.50;4243930;27;11134;-63
2024/01/09 16:52:39;;;;;;;;;;;;;;;3.84;68.54;97363.41;4239440;27;5647;-63
2024/01/09 16:54:42;;;;;;;;;;;;;;;4.04;68.10;97363.28;4246319;27;5654;-69
2024/01/09 16:56:45;;;;;;;;;;;;;;;4.22;67.63;97366.03;4240541;27;5651;-68
2024/01/09 16:58:49;;;;;;;;;;;;;;;4.33;67.05;97375.53;4240969;27;5647;-61
2024/01/09 17:00:52;;;;;;;;;;;;;;;4.44;66.81;97370.13;4235721;27;5935;-63
2024/01/09 17:02:56;;;;;;;;;;;;;;;4.44;65.81;97361.47;4233505;27;5778;-62
2024/01/09 17:04:58;;;;;;;;;;;;;;;4.42;66.02;97364.22;4232383;27;5881;-66
2024/01/09 17:07:02;;;;;;;;;;;;;;;4.50;66.14;97366.94;4236286;27;5650;-63
2024/01/09 17:09:06;;;;;;;;;;;;;;;4.56;65.97;97363.78;4246561;27;5776;-64
2024/01/09 17:11:13;;;;;;;;;;;;;;;4.58;65.63;97361.00;4244048;27;5920;-64
2024/01/09 17:13:16;;;;;;;;;;;;;;;4.61;65.67;97364.16;4246822;27;5710;-66
2024/01/09 17:15:25;;;;;;;;;;;;;;;4.65;65.28;97362.94;4251745;27;5859;-64
2024/01/09 17:17:28;;;;;;;;;;;;;;;4.64;64.94;97363.03;4246274;27;5692;-65
2024/01/09 17:19:31;;;;;;;;;;;;;;;4.63;65.24;97362.22;4246180;27;5718;-62
2024/01/09 17:21:34;;;;;;;;;;;;;;;4.69;64.98;97371.31;4238656;27;5757;-60
2024/01/09 17:23:39;;;;;;;;;;;;;;;4.68;64.77;97374.91;4246760;27;5650;-63
2024/01/09 17:25:41;;;;;;;;;;;;;;;4.66;64.29;97374.22;4247896;27;5676;-62
2024/01/09 17:27:45;;;;;;;;;;;;;;;4.61;64.39;97372.00;4243682;27;5758;-69
2024/01/09 17:29:46;;;;;;;;;;;;;;;4.60;64.48;97372.16;4243719;27;6495;-61
2024/01/09 17:31:49;;;;;;;;;;;;;;;4.60;64.33;97370.38;4242299;27;5743;-62
2024/01/09 17:33:52;;;;;;;;;;;;;;;4.57;64.32;97372.47;4244504;27;5872;-61
2024/01/09 17:35:56;;;;;;;;;;;;;;;4.55;64.17;97380.47;4235033;27;5897;-63
2024/01/09 17:37:59;;;;;;;;;;;;;;;4.58;64.23;97380.16;4231762;27;5765;-61
2024/01/09 17:40:05;;;;;;;;;;;;;;;4.61;64.37;97374.63;4239394;27;6238;-67
2024/01/09 17:42:07;;;;;;;;;;;;;;;4.64;64.02;97371.75;4244270;27;5846;-63
2024/01/09 17:44:10;;;;;;;;;;;;;;;4.67;64.08;97368.03;4243469;27;5726;-65
2024/01/09 17:46:14;;;;;;;;;;;;;;;4.70;64.12;97366.91;4244838;27;5734;-64
2024/01/09 17:48:19;;;;;;;;;;;;;;;4.72;63.91;97363.16;4234581;27;6345;-61
2024/01/09 17:50:23;;;;;;;;;;;;;;;4.80;63.92;97372.94;4235142;27;5797;-62
2024/01/09 17:52:26;;;;;;;;;;;;;;;4.80;63.78;97372.94;4227618;27;5843;-61
2024/01/09 17:54:29;;;;;;;;;;;;;;;4.83;63.76;97367.41;4223277;27;5731;-67
2024/01/09 17:56:37;;;;;;;;;;;;;;;4.82;63.54;97374.44;4230313;27;5755;-63
2024/01/09 17:58:40;;;;;;;;;;;;;;;4.84;63.33;97379.53;4231574;27;5828;-65
2024/01/09 18:00:43;;;;;;;;;;;;;;;4.81;63.12;97390.31;4233497;27;5751;-62
2024/01/09 18:02:46;;;;;;;;;;;;;;;4.75;63.00;97396.09;4231765;27;5635;-64
2024/01/09 18:04:49;;;;;;;;;;;;;;;4.75;63.34;97398.72;4235161;27;5726;-63
2024/01/09 18:06:52;;;;;;;;;;;;;;;4.77;63.00;97400.25;4228285;27;5885;-64
2024/01/09 18:08:55;;;;;;;;;;;;;;;4.74;62.98;97397.91;4228372;27;5774;-62
2024/01/09 18:11:01;;;;;;;;;;;;;;;4.77;63.04;97399.44;4230304;27;5845;-62
2024/01/09 18:13:06;;;;;;;;;;;;;;;4.79;63.20;97397.50;4239189;27;5693;-62
2024/01/09 18:15:11;;;;;;;;;;;;;;;4.80;63.06;97399.13;4246700;27;5677;-64
2024/01/09 18:17:14;;;;;;;;;;;;;;;4.79;63.01;97400.09;4234530;27;5655;-63
2024/01/09 18:19:18;;;;;;;;;;;;;;;4.80;63.05;97401.75;4233551;27;5860;-61
2024/01/09 18:21:24;;;;;;;;;;;;;;;4.79;63.01;97403.56;4229857;27;6467;-59
2024/01/09 18:23:27;;;;;;;;;;;;;;;4.81;63.00;97419.13;4240758;27;5712;-59
2024/01/09 18:25:30;;;;;;;;;;;;;;;4.83;63.01;97414.56;4232634;27;5713;-59
2024/01/09 18:27:35;;;;;;;;;;;;;;;4.82;62.88;97407.69;4224957;28;5708;-58
2024/01/09 18:29:39;;;;;;;;;;;;;;;4.83;62.87;97415.38;4228427;27;5069;-59
2024/01/09 18:31:43;;;;;;;;;;;;;;;4.83;62.84;97415.38;4230589;27;7797;-59
2024/01/09 18:33:46;;;;;;;;;;;;;;;4.83;62.65;97391.81;4231761;27;5899;-59
2024/01/09 18:35:49;;;;;;;;;;;;;;;4.88;62.83;97396.63;4232653;27;5650;-58
2024/01/09 18:37:53;;;;;;;;;;;;;;;4.89;62.49;97398.28;4229448;27;6754;-58
2024/01/09 18:39:57;;;;;;;;;;;;;;;4.91;62.70;97393.72;4230954;27;5833;-58
2024/01/09 18:42:03;;;;;;;;;;;;;;;4.90;62.44;97399.94;4235512;27;5625;-59
2024/01/09 18:44:06;;;;;;;;;;;;;;;4.90;62.56;97386.84;4233355;27;5663;-59
2024/01/09 18:46:11;;;;;;;;;;;;;;;4.91;62.47;97391.09;4234401;27;5642;-59
2024/01/09 18:48:13;;;;;;;;;;;;;;;4.88;62.05;97401.88;4233385;28;5930;-58
2024/01/09 18:50:17;;;;;;;;;;;;;;;4.81;62.00;97401.63;4234665;28;5725;-59
2024/01/09 18:52:20;;;;;;;;;;;;;;;4.78;61.98;97401.09;4232810;27;5725;-57
2024/01/09 18:54:23;;;;;;;;;;;;;;;4.76;62.35;97403.03;4224045;28;5667;-59
2024/01/09 18:56:26;;;;;;;;;;;;;;;4.76;62.32;97403.84;4224307;28;5647;-59
2024/01/09 18:58:30;;;;;;;;;;;;;;;4.78;62.18;97401.09;4229776;27;5650;-58
2024/01/09 19:00:33;;;;;;;;;;;;;;;4.77;62.20;97391.56;4226889;27;5642;-58
2024/01/09 19:02:36;;;;;;;;;;;;;;;4.75;62.22;97391.69;4224328;28;5699;-59
2024/01/09 19:04:43;;;;;;;;;;;;;;;4.77;62.34;97394.19;4222393;27;5696;-59
2024/01/09 19:06:47;;;;;;;;;;;;;;;4.79;62.21;97402.72;4231876;27;5831;-58
2024/01/09 19:08:50;;;;;;;;;;;;;;;4.78;62.17;97396.66;4226404;27;5660;-58
2024/01/09 19:10:53;;;;;;;;;;;;;;;4.77;61.85;97407.28;4234815;27;5865;-59
2024/01/09 19:12:57;;;;;;;;;;;;;;;4.78;61.97;97408.94;4223144;27;5950;-59
2024/01/09 19:15:00;;;;;;;;;;;;;;;4.81;62.00;97411.25;4232340;27;5625;-59
2024/01/09 19:17:02;;;;;;;;;;;;;;;4.83;61.86;97412.78;4233143;28;5639;-59
2024/01/09 19:19:07;;;;;;;;;;;;;;;4.84;61.90;97411.78;4224498;27;5726;-59
2024/01/09 19:21:10;;;;;;;;;;;;;;;4.77;61.59;97415.97;4230156;27;5788;-59
2024/01/09 19:23:13;;;;;;;;;;;;;;;4.71;61.84;97413.91;4236907;27;5642;-58
2024/01/09 19:25:15;;;;;;;;;;;;;;;4.66;61.67;97410.91;4236099;27;5655;-57
2024/01/09 19:27:18;;;;;;;;;;;;;;;4.66;61.79;97411.72;4226941;28;5664;-58
2024/01/09 19:29:21;;;;;;;;;;;;;;;4.68;61.83;97407.16;4232487;27;5663;-58
2024/01/09 19:31:25;;;;;;;;;;;;;;;4.63;61.56;97405.91;4238968;27;5658;-62
2024/01/09 19:33:27;;;;;;;;;;;;;;;4.63;61.83;97409.38;4224484;27;5897;-62
2024/01/09 19:35:32;;;;;;;;;;;;;;;4.62;61.81;97415.56;4226203;28;5745;-66
2024/01/09 19:37:35;;;;;;;;;;;;;;;4.64;61.61;97421.50;4229509;28;5654;-70
2024/01/09 19:39:37;;;;;;;;;;;;;;;4.63;61.72;97411.97;4234769;27;5907;-68
2024/01/09 19:41:41;;;;;;;;;;;;;;;4.62;61.55;97417.38;4226720;27;5710;-65
2024/01/09 19:43:44;;;;;;;;;;;;;;;4.62;61.53;97415.56;4233646;28;5647;-65
2024/01/09 19:45:46;;;;;;;;;;;;;;;4.61;61.54;97406.06;4233613;28;5651;-66
2024/01/09 19:47:51;;;;;;;;;;;;;;;4.59;61.61;97407.19;4231723;28;5737;-65
2024/01/09 19:49:54;;;;;;;;;;;;;;;4.59;61.60;97408.00;4232009;27;5882;-63
2024/01/09 19:52:04;;;;;;;;;;;;;;;4.58;61.72;97413.38;4224714;27;5639;-64
2024/01/09 19:54:08;;;;;;;;;;;;;;;4.58;61.72;97403.72;4230827;27;5729;-74
2024/01/09 19:56:26;;;;;;;;;;;;;;;4.58;61.50;97406.34;4233524;27;5806;-66
2024/01/09 19:58:29;;;;;;;;;;;;;;;4.58;61.81;97406.34;4233116;28;5737;-67
2024/01/09 20:00:32;;;;;;;;;;;;;;;4.62;61.59;97417.38;4231273;28;5774;-64
2024/01/09 20:02:35;;;;;;;;;;;;;;;4.60;61.64;97408.81;4226755;27;5655;-65
2024/01/09 20:04:41;;;;;;;;;;;;;;;4.62;61.55;97412.94;4241571;27;5625;-63
2024/01/09 20:06:44;;;;;;;;;;;;;;;4.62;61.73;97412.13;4238097;27;5808;-65
2024/01/09 20:08:48;;;;;;;;;;;;;;;4.62;61.62;97399.84;4228509;28;5765;-63
2024/01/09 20:10:52;;;;;;;;;;;;;;;4.64;61.58;97403.19;4232794;27;5813;-62
2024/01/09 20:12:55;;;;;;;;;;;;;;;4.68;61.67;97409.78;4231648;27;5722;-63
2024/01/09 20:14:58;;;;;;;;;;;;;;;4.77;61.68;97404.66;4223929;28;5651;-63
2024/01/09 20:17:01;;;;;;;;;;;;;;;4.81;61.68;97400.78;4229559;27;5837;-62
2024/01/09 20:19:05;;;;;;;;;;;;;;;4.81;61.58;97400.78;4229354;28;6719;-64
2024/01/09 20:21:08;;;;;;;;;;;;;;;4.85;61.62;97402.16;4233431;27;5631;-64
2024/01/09 20:23:14;;;;;;;;;;;;;;;4.86;61.72;97404.63;4228659;28;5652;-62
2024/01/09 20:25:18;;;;;;;;;;;;;;;4.85;61.66;97391.66;4233764;27;5613;-61
2024/01/09 20:27:22;;;;;;;;;;;;;;;4.85;61.64;97391.66;4229599;27;5647;-63
2024/01/09 20:29:25;;;;;;;;;;;;;;;4.81;61.71;97382.44;4222249;27;5741;-62
2024/01/09 20:31:29;;;;;;;;;;;;;;;4.78;61.54;97382.75;4228846;27;5676;-62
2024/01/09 20:33:32;;;;;;;;;;;;;;;4.79;61.62;97381.78;4224037;28;5669;-65
2024/01/09 20:35:35;;;;;;;;;;;;;;;4.83;61.72;97383.13;4223014;27;5651;-62
2024/01/09 20:37:40;;;;;;;;;;;;;;;4.84;61.67;97379.53;4229398;27;5675;-64
2024/01/09 20:39:45;;;;;;;;;;;;;;;4.86;61.60;97377.59;4231258;28;5647;-63
2024/01/09 20:41:49;;;;;;;;;;;;;;;4.85;61.71;97387.25;4232030;28;5735;-62
2024/01/09 20:43:52;;;;;;;;;;;;;;;4.85;61.52;97386.44;4231849;27;5865;-64
2024/01/09 20:45:55;;;;;;;;;;;;;;;4.84;61.59;97388.22;4234560;27;5736;-62
2024/01/09 20:48:02;;;;;;;;;;;;;;;4.82;61.58;97381.47;4238315;27;5732;-62
2024/01/09 20:50:06;;;;;;;;;;;;;;;4.80;61.54;97386.88;4229916;28;5879;-61
2024/01/09 20:52:09;;;;;;;;;;;;;;;4.82;61.67;97394.56;4228407;27;5837;-60
2024/01/09 20:54:11;;;;;;;;;;;;;;;4.77;61.68;97396.81;4223500;28;5675;-61
2024/01/09 20:56:14;;;;;;;;;;;;;;;4.75;61.53;97390.88;4229680;28;5638;-64
2024/01/09 20:58:19;;;;;;;;;;;;;;;4.73;61.51;97395.44;4231436;28;5639;-64
2024/01/09 21:00:21;;;;;;;;;;;;;;;4.72;61.46;97396.41;4232229;28;5741;-64
2024/01/09 21:02:24;;;;;;;;;;;;;;;4.70;61.47;97393.09;4235816;27;5738;-63
2024/01/09 21:04:30;;;;;;;;;;;;;;;4.71;61.36;97394.75;4222441;28;5647;-66
2024/01/09 21:06:33;;;;;;;;;;;;;;;4.70;61.21;97398.34;4223990;28;5646;-66
2024/01/09 21:08:38;;;;;;;;;;;;;;;4.67;61.25;97395.03;4226639;28;5738;-62
2024/01/09 21:10:44;;;;;;;;;;;;;;;4.68;61.33;97393.25;4230084;28;5817;-63
2024/01/09 21:12:48;;;;;;;;;;;;;;;4.70;61.41;97398.34;4232022;27;6047;-64
2024/01/09 21:14:51;;;;;;;;;;;;;;;4.71;61.37;97406.03;4230517;27;5671;-64
2024/01/09 21:16:54;;;;;;;;;;;;;;;4.72;61.23;97399.84;4227985;27;5692;-62
2024/01/09 21:18:57;;;;;;;;;;;;;;;4.75;61.20;97401.34;4230693;27;5733;-64
2024/01/09 21:21:00;;;;;;;;;;;;;;;4.73;61.06;97409.34;4242760;27;5803;-63
2024/01/09 21:23:04;;;;;;;;;;;;;;;4.71;60.98;97405.22;4232230;27;5879;-61
2024/01/09 21:25:08;;;;;;;;;;;;;;;4.71;61.02;97410.47;4225343;27;5643;-67
2024/01/09 21:27:11;;;;;;;;;;;;;;;4.74;61.11;97410.16;4232810;28;5643;-65
2024/01/09 21:29:15;;;;;;;;;;;;;;;4.75;61.05;97411.81;4230727;27;5745;-63
2024/01/09 21:31:20;;;;;;;;;;;;;;;4.76;60.83;97419.56;4228782;28;5831;-61
2024/01/09 21:33:23;;;;;;;;;;;;;;;4.72;61.08;97428.66;4230657;27;6376;-65
2024/01/09 21:35:26;;;;;;;;;;;;;;;4.73;61.15;97424.22;4233193;27;5669;-66
2024/01/09 21:37:30;;;;;;;;;;;;;;;4.67;60.79;97421.22;4233394;27;5670;-64
2024/01/09 21:39:33;;;;;;;;;;;;;;;4.65;60.74;97428.41;4224990;28;5662;-63
2024/01/09 21:41:36;;;;;;;;;;;;;;;4.66;60.85;97435.28;4239658;27;5690;-66
2024/01/09 21:43:39;;;;;;;;;;;;;;;4.65;60.93;97431.03;4233288;28;5718;-65
2024/01/09 21:45:43;;;;;;;;;;;;;;;4.65;60.72;97428.41;4232920;27;5680;-64
2024/01/09 21:47:47;;;;;;;;;;;;;;;4.67;60.74;97433.50;4228132;28;5813;-65
2024/01/09 21:49:50;;;;;;;;;;;;;;;4.67;60.58;97426.47;4230431;27;5885;-64
2024/01/09 21:51:53;;;;;;;;;;;;;;;4.68;60.73;97433.34;4229778;27;5977;-63
2024/01/09 21:53:56;;;;;;;;;;;;;;;4.70;60.56;97430.59;4230961;28;5876;-59
2024/01/09 21:55:59;;;;;;;;;;;;;;;4.68;60.33;97425.50;4240883;27;5617;-59
2024/01/09 21:58:04;;;;;;;;;;;;;;;4.72;60.32;97423.41;4236373;27;5655;-62
2024/01/09 22:00:09;;;;;;;;;;;;;;;4.74;60.41;97415.41;4234175;28;5650;-61
2024/01/09 22:02:14;;;;;;;;;;;;;;;4.75;60.41;97417.06;4231111;28;5751;-62
2024/01/09 22:04:24;;;;;;;;;;;;;;;4.78;60.32;97414.19;4226550;28;5715;-59
2024/01/09 22:06:27;;;;;;;;;;;;;;;4.78;60.39;97409.75;4232795;27;5640;-60
2024/01/09 22:08:31;;;;;;;;;;;;;;;4.78;60.31;97419.41;4221290;28;5668;-61
2024/01/09 22:10:33;;;;;;;;;;;;;;;4.75;60.44;97417.88;4232830;28;5783;-62
2024/01/09 22:12:36;;;;;;;;;;;;;;;4.77;60.29;97421.22;4233654;27;5841;-61
2024/01/09 22:14:38;;;;;;;;;;;;;;;4.81;60.38;97425.19;4232593;27;5734;-60
2024/01/09 22:16:41;;;;;;;;;;;;;;;4.83;60.41;97418.00;4232619;28;5116;-60
2024/01/09 22:18:44;;;;;;;;;;;;;;;4.83;60.25;97422.44;4244488;27;7705;-60
2024/01/09 22:20:49;;;;;;;;;;;;;;;4.84;60.39;97413.59;4228338;27;5861;-61
2024/01/09 22:22:52;;;;;;;;;;;;;;;4.82;60.43;97407.69;4242919;27;5863;-60
2024/01/09 22:24:55;;;;;;;;;;;;;;;4.80;60.43;97415.69;4219984;28;5628;-61
2024/01/09 22:26:59;;;;;;;;;;;;;;;4.80;60.35;97412.22;4227845;27;5655;-60
2024/01/09 22:29:02;;;;;;;;;;;;;;;4.83;60.50;97422.44;4233666;28;5635;-61
2024/01/09 22:31:06;;;;;;;;;;;;;;;4.83;60.35;97419.81;4238015;27;5609;-62
2024/01/09 22:33:09;;;;;;;;;;;;;;;4.86;60.32;97414.28;4235440;27;5651;-61
2024/01/09 22:35:13;;;;;;;;;;;;;;;4.82;60.40;97418.16;4232403;27;5715;-63
2024/01/09 22:37:18;;;;;;;;;;;;;;;4.80;60.17;97410.44;4235396;27;5709;-64
2024/01/09 22:39:21;;;;;;;;;;;;;;;4.83;60.31;97409.31;4236708;27;5666;-63
2024/01/09 22:41:25;;;;;;;;;;;;;;;4.84;60.33;97411.78;4232042;27;5654;-63
2024/01/09 22:43:28;;;;;;;;;;;;;;;4.85;60.36;97405.59;4231254;27;5651;-63
2024/01/09 22:45:31;;;;;;;;;;;;;;;4.84;60.17;97401.31;4230548;28;5805;-63
2024/01/09 22:47:33;;;;;;;;;;;;;;;4.81;60.29;97411.25;4227147;27;5710;-63
2024/01/09 22:49:36;;;;;;;;;;;;;;;4.81;60.10;97406.84;4233784;28;5646;-63
2024/01/09 22:51:39;;;;;;;;;;;;;;;4.82;60.25;97418.16;4234110;27;5765;-61
2024/01/09 22:53:43;;;;;;;;;;;;;;;4.83;60.28;97422.44;4237853;27;5643;-63
2024/01/09 22:55:46;;;;;;;;;;;;;;;4.79;60.24;97423.69;4231366;27;5658;-63
